Time;durP1;ratioP1;P1;durP2;ratioP2;P2;SDS_P1;SDS_P2;PMS_P1;PMS_P2;Temp;Humidity;BMP_temperature;BMP_pressure;BME280_temperature;BME280_humidity;BME280_pressure;Samples;Min_cycle;Max_cycle;Signal;HPM_P1;HPM_P2
2021/07/13 00:09:14;;;;;;;4.82;2.13;;;18.90;99.90;;;;;;20453014;28;20118;-49
2021/07/13 00:19:15;;;;;;;4.30;2.40;;;18.90;99.90;;;;;;20452062;28;20050;-49
2021/07/13 00:29:16;;;;;;;6.30;2.92;;;18.90;99.90;;;;;;20454995;28;20042;-49
2021/07/13 00:39:17;;;;;;;6.32;3.00;;;18.90;99.90;;;;;;20446980;28;20074;-49
2021/07/13 00:49:19;;;;;;;5.35;2.40;;;18.90;99.90;;;;;;20458478;28;20035;-49
2021/07/13 00:59:20;;;;;;;6.47;1.92;;;18.80;99.90;;;;;;20467790;28;20043;-49
2021/07/13 01:09:47;;;;;;;5.90;2.75;;;18.60;99.90;;;;;;20465436;28;20038;-49
2021/07/13 01:20:19;;;;;;;5.97;2.80;;;18.70;99.90;;;;;;20461695;28;20043;-49
2021/07/13 01:30:31;;;;;;;5.35;2.80;;;18.60;99.90;;;;;;20465750;28;20039;-49
2021/07/13 01:40:33;;;;;;;5.22;2.97;;;18.60;99.90;;;;;;20472329;28;20130;-49
2021/07/13 01:50:35;;;;;;;6.10;2.70;;;18.50;99.90;;;;;;20462392;28;20054;-49
2021/07/13 02:00:40;;;;;;;6.30;3.30;;;18.50;99.90;;;;;;20454910;28;20066;-49
2021/07/13 02:10:41;;;;;;;6.25;3.00;;;18.50;99.90;;;;;;20466907;28;20039;-49
2021/07/13 02:20:43;;;;;;;9.73;3.92;;;18.50;99.90;;;;;;20465821;28;20074;-49
2021/07/13 02:30:50;;;;;;;13.63;6.25;;;18.50;99.90;;;;;;20460208;28;20118;-49
2021/07/13 02:40:52;;;;;;;16.63;5.87;;;18.70;99.90;;;;;;20460845;28;20142;-49
2021/07/13 02:50:56;;;;;;;11.68;5.95;;;18.90;99.90;;;;;;20457516;28;20035;-48
2021/07/13 03:00:58;;;;;;;22.05;7.68;;;19.10;99.90;;;;;;20455334;28;20035;-48
2021/07/13 03:11:02;;;;;;;29.83;10.30;;;19.30;99.90;;;;;;20454093;28;20046;-48
2021/07/13 03:21:04;;;;;;;24.88;9.75;;;19.30;99.90;;;;;;20453610;28;20086;-48
2021/07/13 03:31:08;;;;;;;25.30;9.35;;;19.40;99.90;;;;;;20452842;28;20103;-48
2021/07/13 03:41:09;;;;;;;23.45;10.05;;;19.40;99.90;;;;;;20454886;28;20043;-48
2021/07/13 03:51:21;;;;;;;17.70;7.97;;;19.40;99.90;;;;;;20449930;28;20149;-48
2021/07/13 04:01:22;;;;;;;20.50;9.85;;;19.40;99.90;;;;;;20450927;28;20046;-48
2021/07/13 04:11:23;;;;;;;20.40;8.73;;;19.50;99.90;;;;;;20451171;28;20071;-48
2021/07/13 04:21:25;;;;;;;15.48;7.38;;;19.40;99.90;;;;;;20451938;28;20047;-48
2021/07/13 04:31:26;;;;;;;16.98;7.18;;;19.40;99.90;;;;;;20448550;28;20040;-48
2021/07/13 04:41:27;;;;;;;14.25;6.13;;;19.50;99.90;;;;;;20449484;28;20061;-48
2021/07/13 04:51:28;;;;;;;21.00;8.23;;;19.60;99.90;;;;;;20450645;28;20047;-49
2021/07/13 05:01:29;;;;;;;20.23;7.65;;;19.60;99.90;;;;;;20442537;28;20187;-48
2021/07/13 05:11:33;;;;;;;14.27;6.55;;;19.70;99.90;;;;;;20454215;28;20050;-48
2021/07/13 05:21:34;;;;;;;17.13;7.32;;;19.60;99.90;;;;;;20455899;28;20043;-48
2021/07/13 05:31:36;;;;;;;19.75;7.05;;;19.70;99.90;;;;;;20456405;28;20075;-49
2021/07/13 05:41:38;;;;;;;15.40;6.38;;;19.70;99.90;;;;;;20470646;28;20043;-48
2021/07/13 05:51:39;;;;;;;13.95;7.25;;;19.70;99.90;;;;;;20464836;28;20100;-48
2021/07/13 06:01:40;;;;;;;13.02;5.88;;;19.80;99.90;;;;;;20457967;28;20043;-48
2021/07/13 06:11:41;;;;;;;15.60;6.18;;;19.70;99.90;;;;;;20462292;28;20075;-48
2021/07/13 06:21:43;;;;;;;14.15;6.70;;;19.80;99.90;;;;;;20456929;28;20043;-48
2021/07/13 06:31:45;;;;;;;15.73;6.63;;;19.90;99.90;;;;;;20465828;28;20054;-48
2021/07/13 06:41:46;;;;;;;16.23;5.88;;;19.90;99.90;;;;;;20470657;28;20043;-48
2021/07/13 06:51:47;;;;;;;18.20;6.78;;;19.90;99.90;;;;;;20463355;28;20305;-48
2021/07/13 07:01:49;;;;;;;15.38;6.13;;;19.90;99.90;;;;;;20467448;28;20065;-48
2021/07/13 07:11:50;;;;;;;13.40;5.93;;;20.00;99.90;;;;;;20462341;28;20047;-48
2021/07/13 07:21:51;;;;;;;15.98;6.82;;;20.10;99.90;;;;;;20468394;28;20063;-48
2021/07/13 07:31:52;;;;;;;19.60;6.70;;;20.30;99.90;;;;;;20467853;28;20039;-49
2021/07/13 07:41:54;;;;;;;13.73;6.55;;;20.20;99.90;;;;;;20468808;28;20043;-48
2021/07/13 07:51:55;;;;;;;15.35;6.90;;;20.20;99.90;;;;;;20465738;28;20074;-48
2021/07/13 08:01:57;;;;;;;14.57;5.65;;;20.10;99.90;;;;;;20463222;28;20047;-48
2021/07/13 08:11:58;;;;;;;18.67;7.03;;;20.10;99.90;;;;;;20466578;28;20043;-48
2021/07/13 08:22:04;;;;;;;11.82;5.70;;;20.10;99.90;;;;;;20465616;28;20050;-48
2021/07/13 08:32:06;;;;;;;16.70;7.75;;;20.10;99.90;;;;;;20465614;28;20054;-48
2021/07/13 08:42:09;;;;;;;11.50;5.35;;;20.30;99.90;;;;;;20464859;28;20050;-48
2021/07/13 08:52:11;;;;;;;16.88;7.07;;;20.20;99.90;;;;;;20463813;28;20043;-48
2021/07/13 09:02:13;;;;;;;17.13;7.03;;;20.20;99.90;;;;;;20464302;28;20037;-48
2021/07/13 09:12:23;;;;;;;18.67;6.95;;;20.20;99.90;;;;;;20474115;28;20158;-49
2021/07/13 09:22:24;;;;;;;14.65;5.90;;;20.30;99.90;;;;;;20479096;28;20126;-48
2021/07/13 09:32:35;;;;;;;16.85;6.78;;;20.40;99.90;;;;;;20476716;28;20149;-49
2021/07/13 09:42:46;;;;;;;15.93;6.15;;;20.20;99.90;;;;;;20476340;28;20054;-48
2021/07/13 09:52:57;;;;;;;12.55;5.22;;;20.20;99.90;;;;;;20474540;28;20423;-49
2021/07/13 10:02:59;;;;;;;11.57;5.15;;;20.20;99.90;;;;;;20472827;28;20050;-49
2021/07/13 10:13:00;;;;;;;15.32;5.70;;;20.20;99.90;;;;;;20473566;28;20122;-49
2021/07/13 10:23:10;;;;;;;16.25;6.32;;;20.20;99.90;;;;;;20472781;28;20287;-49
2021/07/13 10:33:30;;;;;;;;;;;20.30;99.90;;;;;;20471858;28;20039;-49
2021/07/13 10:43:46;;;;;;;11.15;4.90;;;20.20;99.90;;;;;;20472205;28;19926;-48
2021/07/13 10:54:03;;;;;;;11.30;5.88;;;20.40;99.90;;;;;;20470489;28;20039;-49
2021/07/13 11:04:09;;;;;;;15.15;5.43;;;20.30;99.90;;;;;;20468868;28;20120;-49
2021/07/13 11:14:11;;;;;;;17.33;6.07;;;20.30;99.90;;;;;;20471170;28;20039;-48
2021/07/13 11:24:18;;;;;;;16.23;5.55;;;20.30;99.90;;;;;;20469622;28;20150;-48
2021/07/13 11:34:21;;;;;;;17.80;6.30;;;20.30;99.90;;;;;;20466677;28;20035;-49
2021/07/13 11:44:23;;;;;;;16.83;7.22;;;20.30;99.90;;;;;;20468376;28;20043;-49
2021/07/13 11:54:30;;;;;;;12.43;6.10;;;20.20;99.90;;;;;;20467082;28;20035;-48
2021/07/13 12:04:42;;;;;;;19.42;5.07;;;20.20;99.90;;;;;;20465706;28;20118;-49
2021/07/13 12:14:52;;;;;;;11.05;5.00;;;20.30;99.90;;;;;;20467033;28;20083;-49
2021/07/13 12:25:00;;;;;;;13.15;5.15;;;20.50;99.90;;;;;;20466154;28;20039;-49
2021/07/13 12:35:15;;;;;;;11.25;4.90;;;20.50;99.90;;;;;;20463804;28;20035;-49
2021/07/13 12:45:24;;;;;;;14.77;5.65;;;20.30;99.90;;;;;;20470137;28;20055;-48
2021/07/13 12:55:38;;;;;;;11.52;5.13;;;20.30;99.90;;;;;;20476763;28;20039;-48
2021/07/13 13:05:42;;;;;;;11.93;5.18;;;20.10;99.90;;;;;;20473926;28;20039;-49
2021/07/13 13:15:47;;;;;;;11.98;5.65;;;20.30;99.90;;;;;;20474074;28;20067;-49
2021/07/13 13:25:49;;;;;;;10.68;4.55;;;20.30;99.90;;;;;;20476678;28;20049;-49
2021/07/13 13:46:10;;;;;;;13.50;5.80;;;20.20;99.90;;;;;;20474634;28;20126;-48
2021/07/13 13:56:15;;;;;;;15.52;6.07;;;20.30;99.90;;;;;;20476328;28;20038;-48
2021/07/13 14:06:17;;;;;;;11.15;5.53;;;20.10;99.90;;;;;;20471972;28;20043;-49
2021/07/13 14:16:18;;;;;;;11.15;4.75;;;20.10;99.90;;;;;;20475800;28;20035;-49
2021/07/13 14:26:19;;;;;;;10.63;4.78;;;20.20;99.90;;;;;;20473785;28;20049;-49
2021/07/13 14:36:22;;;;;;;9.10;4.20;;;20.10;99.90;;;;;;20467890;28;20039;-48
2021/07/13 14:46:23;;;;;;;12.15;4.85;;;20.00;99.90;;;;;;20468374;28;20036;-49
2021/07/13 14:56:26;;;;;;;9.15;4.63;;;19.90;99.90;;;;;;20470545;28;20035;-49
2021/07/13 15:06:27;;;;;;;14.43;6.13;;;19.80;99.90;;;;;;20467386;28;20142;-49
2021/07/13 15:16:29;;;;;;;11.07;4.50;;;19.80;99.90;;;;;;20468318;28;20293;-49
2021/07/13 15:26:30;;;;;;;10.50;4.88;;;19.70;99.90;;;;;;20466564;28;20047;-48
2021/07/13 15:36:31;;;;;;;11.75;5.35;;;19.90;99.90;;;;;;20467434;28;20352;-49
2021/07/13 15:46:32;;;;;;;9.40;4.20;;;20.10;99.90;;;;;;20463324;28;20120;-49
2021/07/13 15:56:33;;;;;;;8.73;3.42;;;20.10;99.90;;;;;;20465622;28;20530;-48
2021/07/13 16:06:34;;;;;;;9.73;3.72;;;20.10;99.90;;;;;;20464856;28;20055;-49
2021/07/13 16:16:35;;;;;;;6.80;3.25;;;20.10;99.90;;;;;;20463621;28;20125;-48
2021/07/13 16:26:37;;;;;;;7.22;3.58;;;20.20;99.90;;;;;;20463734;28;20117;-48
2021/07/13 16:36:38;;;;;;;8.20;3.45;;;20.30;99.90;;;;;;20459689;28;20047;-49
2021/07/13 16:46:39;;;;;;;8.20;3.45;;;20.20;99.90;;;;;;20462622;28;20039;-49
2021/07/13 16:56:41;;;;;;;7.15;3.25;;;20.20;99.90;;;;;;20461885;28;20035;-49
2021/07/13 17:06:42;;;;;;;7.07;3.10;;;20.10;99.90;;;;;;20461649;28;20039;-48
2021/07/13 17:16:43;;;;;;;7.10;3.72;;;20.00;99.90;;;;;;20456672;28;20031;-49
2021/07/13 17:26:44;;;;;;;7.72;3.50;;;19.90;99.90;;;;;;20447272;28;20071;-49
2021/07/13 17:36:45;;;;;;;9.38;4.22;;;19.90;99.90;;;;;;20456888;28;20039;-49
2021/07/13 17:46:47;;;;;;;13.90;3.92;;;19.90;99.90;;;;;;20442638;28;20054;-49
2021/07/13 17:56:48;;;;;;;9.73;3.17;;;19.90;99.90;;;;;;20451377;28;20031;-49
2021/07/13 18:06:50;;;;;;;15.00;5.45;;;19.90;99.90;;;;;;20444262;28;20157;-49
2021/07/13 18:16:51;;;;;;;10.77;3.78;;;19.90;99.90;;;;;;20455980;28;20043;-48
2021/07/13 18:26:53;;;;;;;8.75;4.25;;;19.80;99.90;;;;;;20449218;28;20046;-48
2021/07/13 18:36:54;;;;;;;11.27;4.00;;;19.70;99.90;;;;;;20437564;28;20047;-49
2021/07/13 18:46:55;;;;;;;7.20;3.58;;;19.60;99.90;;;;;;20450844;28;20063;-48
2021/07/13 18:56:56;;;;;;;8.23;3.70;;;19.60;99.90;;;;;;20465303;28;20043;-48
2021/07/13 19:06:58;;;;;;;8.27;3.67;;;19.60;99.90;;;;;;20439665;28;20043;-48
2021/07/13 19:16:59;;;;;;;6.53;3.22;;;19.40;99.90;;;;;;20455306;28;20058;-48
2021/07/13 19:27:04;;;;;;;13.13;4.38;;;19.30;99.90;;;;;;20438968;28;20082;-48
2021/07/13 19:47:40;;;;;;;7.32;2.70;;;18.90;99.90;;;;;;20423060;28;20183;-49
2021/07/13 19:57:43;;;;;;;7.03;3.38;;;18.80;99.90;;;;;;20445493;28;20039;-48
2021/07/13 20:07:44;;;;;;;7.30;2.75;;;18.70;99.90;;;;;;20452548;28;20111;-49
2021/07/13 20:17:46;;;;;;;8.73;3.75;;;18.70;99.90;;;;;;20454292;28;20049;-48
2021/07/13 20:27:48;;;;;;;10.50;3.80;;;18.70;99.90;;;;;;20456156;28;20547;-49
2021/07/13 20:37:51;;;;;;;10.30;3.83;;;18.60;99.90;;;;;;20437010;28;20082;-48
2021/07/13 20:47:52;;;;;;;8.82;3.55;;;18.50;99.90;;;;;;20401145;28;20130;-48
2021/07/13 20:57:53;;;;;;;7.95;3.20;;;18.40;99.90;;;;;;20443721;28;20039;-48
2021/07/13 21:07:55;;;;;;;10.50;4.75;;;18.40;99.90;;;;;;20445705;28;20039;-49
2021/07/13 21:17:56;;;;;;;10.45;4.03;;;18.40;99.90;;;;;;20456420;28;20109;-48
2021/07/13 21:27:57;;;;;;;10.00;3.60;;;18.40;99.90;;;;;;20461787;28;20044;-48
2021/07/13 21:38:00;;;;;;;10.27;3.45;;;18.40;99.90;;;;;;20457550;28;20119;-48
2021/07/13 21:48:04;;;;;;;10.43;3.60;;;18.50;99.90;;;;;;20460794;28;20054;-48
2021/07/13 21:58:06;;;;;;;10.20;3.30;;;18.30;99.90;;;;;;20466266;28;20611;-48
2021/07/13 22:08:07;;;;;;;11.00;4.22;;;18.40;99.90;;;;;;20456449;28;20039;-48
2021/07/13 22:18:08;;;;;;;8.65;3.85;;;18.40;99.90;;;;;;20457727;28;20027;-48
2021/07/13 22:28:10;;;;;;;11.85;4.25;;;18.40;99.90;;;;;;20458408;28;20555;-48
2021/07/13 22:38:11;;;;;;;8.38;4.30;;;18.30;99.90;;;;;;20453032;28;20138;-48
2021/07/13 22:48:12;;;;;;;8.63;4.30;;;18.30;99.90;;;;;;20457719;28;20101;-48
2021/07/13 22:58:13;;;;;;;7.38;2.95;;;18.30;99.90;;;;;;20455237;28;20043;-48
2021/07/13 23:08:15;;;;;;;12.93;3.95;;;18.40;99.90;;;;;;20449608;28;20074;-48
2021/07/13 23:18:25;;;;;;;12.45;4.13;;;18.30;99.90;;;;;;20454182;28;20056;-48
2021/07/13 23:28:26;;;;;;;9.65;3.38;;;18.30;99.90;;;;;;20452866;28;22041;-48
2021/07/13 23:38:27;;;;;;;10.95;3.83;;;18.30;99.90;;;;;;20446414;28;20165;-48
2021/07/13 23:48:28;;;;;;;9.25;3.75;;;18.20;99.90;;;;;;20450356;28;20244;-48
2021/07/13 23:58:30;;;;;;;9.63;4.15;;;18.20;99.90;;;;;;20451077;28;20050;-48
